createdAt,value
2019-01-25T00:01:11.035Z,129.23
2019-01-25T00:03:40.406Z,119.20
2019-01-25T00:06:10.323Z,108.33
2019-01-25T00:08:39.620Z,126.70
2019-01-25T00:11:08.993Z,111.23
2019-01-25T00:13:38.627Z,114.13
2019-01-25T00:16:08.127Z,114.70
2019-01-25T00:18:37.446Z,113.13
2019-01-25T00:21:06.763Z,111.13
2019-01-25T00:23:36.140Z,109.83
2019-01-25T00:26:06.048Z,108.37
2019-01-25T00:28:35.197Z,99.27
2019-01-25T00:31:04.958Z,107.87
2019-01-25T00:33:34.319Z,117.73
2019-01-25T00:36:03.861Z,111.93
2019-01-25T00:38:33.567Z,109.80
2019-01-25T00:41:02.866Z,107.83
2019-01-25T00:43:32.170Z,106.77
2019-01-25T00:46:01.492Z,101.70
2019-01-25T00:48:30.872Z,103.90
2019-01-25T00:50:59.803Z,99.10
2019-01-25T00:53:28.650Z,100.57
2019-01-25T00:55:57.618Z,102.23
2019-01-25T00:58:26.510Z,106.80
2019-01-25T01:00:55.827Z,116.40
2019-01-25T01:03:24.819Z,104.50
2019-01-25T01:05:54.119Z,95.73
2019-01-25T01:08:23.503Z,107.00
2019-01-25T01:10:52.394Z,108.50
2019-01-25T01:13:22.114Z,100.87
2019-01-25T01:15:51.419Z,96.40
2019-01-25T01:18:20.615Z,91.03
2019-01-25T01:20:50.528Z,101.43
2019-01-25T01:23:20.239Z,97.33
2019-01-25T01:25:49.841Z,99.03
2019-01-25T01:28:18.805Z,111.83
2019-01-25T01:30:48.035Z,96.93
2019-01-25T01:33:17.321Z,102.97
2019-01-25T01:35:46.939Z,98.20
2019-01-25T01:38:16.167Z,103.00
2019-01-25T01:40:45.085Z,98.03
2019-01-25T01:43:14.314Z,100.87
2019-01-25T01:45:43.318Z,86.27
2019-01-25T01:48:12.587Z,96.23
2019-01-25T01:50:41.578Z,96.53
2019-01-25T01:53:10.894Z,103.70
2019-01-25T01:55:40.407Z,90.87
2019-01-25T01:58:09.711Z,85.33
2019-01-25T02:00:38.807Z,85.13
2019-01-25T02:03:08.111Z,93.07
2019-01-25T02:05:37.302Z,102.67
2019-01-25T02:08:06.631Z,98.93
2019-01-25T02:10:35.572Z,90.97
2019-01-25T02:13:04.939Z,86.97
2019-01-25T02:15:34.218Z,91.53
2019-01-25T02:18:03.495Z,89.37
2019-01-25T02:20:32.687Z,97.70
2019-01-25T02:23:01.982Z,95.70
2019-01-25T02:25:30.838Z,92.43
2019-01-25T02:28:00.478Z,89.00
2019-01-25T02:30:29.769Z,92.73
2019-01-25T02:32:59.007Z,86.03
2019-01-25T02:35:28.283Z,85.03
2019-01-25T02:37:57.578Z,77.90
2019-01-25T02:40:26.903Z,88.67
2019-01-25T02:42:55.994Z,73.73
2019-01-25T02:45:25.686Z,89.10
2019-01-25T02:47:55.286Z,83.43
2019-01-25T02:50:24.079Z,86.77
2019-01-25T02:52:53.267Z,82.07
2019-01-25T02:55:22.566Z,86.97
2019-01-25T02:57:51.500Z,89.07
2019-01-25T03:00:22.811Z,74.53
2019-01-25T03:02:52.679Z,83.20
2019-01-25T03:05:22.382Z,82.90
2019-01-25T03:07:52.339Z,74.53
2019-01-25T03:10:28.193Z,87.93
2019-01-25T03:12:52.509Z,79.30
2019-01-25T03:15:26.387Z,76.50
2019-01-25T03:17:55.683Z,75.00
2019-01-25T03:20:25.390Z,84.30
2019-01-25T03:22:54.898Z,76.03
2019-01-25T03:25:26.118Z,79.73
2019-01-25T03:27:55.448Z,79.63
2019-01-25T03:30:25.726Z,71.13
2019-01-25T03:32:55.284Z,84.93
2019-01-25T03:35:25.260Z,72.43
2019-01-25T03:37:54.999Z,75.00
2019-01-25T03:40:26.343Z,82.53
2019-01-25T03:42:55.788Z,75.83
2019-01-25T03:45:25.093Z,81.90
2019-01-25T03:47:55.063Z,69.67
2019-01-25T03:50:27.151Z,83.10
2019-01-25T03:52:56.531Z,82.20
2019-01-25T03:55:25.876Z,84.77
2019-01-25T03:57:55.129Z,76.07
2019-01-25T04:00:26.271Z,72.70
2019-01-25T04:02:55.567Z,86.60
2019-01-25T04:05:25.174Z,81.33
2019-01-25T04:07:54.141Z,69.30
2019-01-25T04:10:24.895Z,74.57
2019-01-25T04:12:53.798Z,80.93
2019-01-25T04:15:24.753Z,84.30
2019-01-25T04:17:53.652Z,86.30
2019-01-25T04:20:23.192Z,74.50
2019-01-25T04:22:52.444Z,78.10
2019-01-25T04:25:22.455Z,82.30
2019-01-25T04:27:52.754Z,78.30
2019-01-25T04:30:26.611Z,80.40
2019-01-25T04:32:55.518Z,85.93
2019-01-25T04:35:24.364Z,71.07
2019-01-25T04:37:53.464Z,83.63
2019-01-25T04:40:22.406Z,77.07
2019-01-25T04:42:51.747Z,83.97
2019-01-25T04:45:21.480Z,82.07
2019-01-25T04:47:50.730Z,81.13
2019-01-25T04:50:21.870Z,85.43
2019-01-25T04:52:51.382Z,78.47
2019-01-25T04:55:22.204Z,85.17
2019-01-25T04:57:51.015Z,86.33
2019-01-25T05:00:21.084Z,86.67
2019-01-25T05:02:57.937Z,80.33
2019-01-25T05:05:27.212Z,84.13
2019-01-25T05:08:03.776Z,81.70
2019-01-25T05:10:32.592Z,87.10
2019-01-25T05:13:01.450Z,88.27
2019-01-25T05:15:30.619Z,92.60
2019-01-25T05:17:59.976Z,88.00
2019-01-25T05:20:29.236Z,84.30
2019-01-25T05:23:00.124Z,78.10
2019-01-25T05:25:29.534Z,88.83
2019-01-25T05:28:00.237Z,91.97
2019-01-25T05:30:29.016Z,83.00
2019-01-25T05:32:57.832Z,89.23
2019-01-25T05:35:32.093Z,83.03
2019-01-25T05:38:01.907Z,80.77
2019-01-25T05:40:31.410Z,90.87
2019-01-25T05:43:00.226Z,90.97
2019-01-25T05:45:29.092Z,94.07
2019-01-25T05:47:57.904Z,80.00
2019-01-25T05:50:26.737Z,91.47
2019-01-25T05:52:55.508Z,93.13
2019-01-25T05:55:24.776Z,88.87
2019-01-25T05:58:00.885Z,91.03
2019-01-25T06:00:33.448Z,84.80
2019-01-25T06:03:10.287Z,86.20
2019-01-25T06:05:39.512Z,89.57
2019-01-25T06:08:33.030Z,91.20
2019-01-25T06:11:05.389Z,85.10
2019-01-25T06:13:34.206Z,82.30
2019-01-25T06:16:03.314Z,87.73
2019-01-25T06:18:32.372Z,89.10
2019-01-25T06:21:01.549Z,89.47
2019-01-25T06:23:31.074Z,89.20
2019-01-25T06:26:01.294Z,84.13
2019-01-25T06:28:30.661Z,83.80
2019-01-25T06:31:00.412Z,93.40
2019-01-25T06:33:29.253Z,91.47
2019-01-25T06:35:58.388Z,87.80
2019-01-25T06:38:27.228Z,86.53
2019-01-25T06:40:56.007Z,91.57
2019-01-25T06:43:25.260Z,92.13
2019-01-25T06:45:53.991Z,89.73
2019-01-25T06:48:23.276Z,94.53
2019-01-25T06:50:52.140Z,101.67
2019-01-25T06:53:21.230Z,95.77
2019-01-25T06:55:50.000Z,91.00
2019-01-25T06:58:28.094Z,93.03
2019-01-25T07:01:02.527Z,96.23
2019-01-25T07:03:31.319Z,100.60
2019-01-25T07:06:00.137Z,92.43
2019-01-25T07:08:29.730Z,88.53
2019-01-25T07:10:58.563Z,97.57
2019-01-25T07:13:27.393Z,88.77
2019-01-25T07:15:56.327Z,105.60
2019-01-25T07:18:25.215Z,87.47
2019-01-25T07:20:54.386Z,96.70
2019-01-25T07:23:23.202Z,91.33
2019-01-25T07:25:51.994Z,86.57
2019-01-25T07:28:21.242Z,92.93
2019-01-25T07:30:50.358Z,89.10
2019-01-25T07:33:19.495Z,96.63
2019-01-25T07:35:48.649Z,99.77
2019-01-25T07:38:17.702Z,95.30
2019-01-25T07:40:46.816Z,97.87
2019-01-25T07:43:16.585Z,94.70
2019-01-25T07:45:45.834Z,91.57
2019-01-25T07:48:15.032Z,96.03
2019-01-25T07:50:44.220Z,98.70
2019-01-25T07:53:13.335Z,88.37
2019-01-25T07:55:42.515Z,95.40
2019-01-25T07:58:11.617Z,85.87
2019-01-25T08:00:41.315Z,98.53
2019-01-25T08:03:10.317Z,87.27
2019-01-25T08:05:39.818Z,86.13
2019-01-25T08:08:09.215Z,88.73
2019-01-25T08:10:38.659Z,88.97
2019-01-25T08:13:07.969Z,93.90
2019-01-25T08:15:37.008Z,98.73
2019-01-25T08:18:06.228Z,104.00
2019-01-25T08:20:35.486Z,101.17
2019-01-25T08:23:05.125Z,89.40
2019-01-25T08:25:34.308Z,91.60
2019-01-25T08:28:03.110Z,94.03
2019-01-25T08:30:32.028Z,98.50
2019-01-25T08:33:01.044Z,91.57
2019-01-25T08:35:30.310Z,83.43
2019-01-25T08:37:59.475Z,89.97
2019-01-25T08:40:28.695Z,82.67
2019-01-25T08:42:57.971Z,77.60
2019-01-25T08:45:27.171Z,83.67
2019-01-25T08:47:56.370Z,88.53
2019-01-25T08:50:25.933Z,79.30
2019-01-25T08:52:54.785Z,78.10
2019-01-25T08:55:24.006Z,86.03
2019-01-25T08:57:53.261Z,93.60
2019-01-25T09:00:23.251Z,82.13
2019-01-25T09:02:52.677Z,77.07
2019-01-25T09:05:22.444Z,82.63
2019-01-25T09:07:51.585Z,70.97
2019-01-25T09:10:20.879Z,80.77
2019-01-25T09:12:49.971Z,74.97
2019-01-25T09:15:26.854Z,69.37
2019-01-25T09:17:55.635Z,71.73
2019-01-25T09:20:24.732Z,80.90
2019-01-25T09:22:54.550Z,79.10
2019-01-25T09:25:23.740Z,75.93
2019-01-25T09:27:52.842Z,74.50
2019-01-25T09:30:22.624Z,78.30
2019-01-25T09:32:51.991Z,67.30
2019-01-25T09:35:21.146Z,79.37
2019-01-25T09:37:50.252Z,67.23
2019-01-25T09:40:22.548Z,74.77
2019-01-25T09:42:51.945Z,83.43
2019-01-25T09:45:22.750Z,79.53
2019-01-25T09:47:52.055Z,74.47
2019-01-25T09:50:21.550Z,68.40
2019-01-25T09:52:50.748Z,81.33
2019-01-25T09:55:24.335Z,79.77
2019-01-25T09:57:53.088Z,67.90
2019-01-25T10:00:25.405Z,66.67
2019-01-25T10:02:54.498Z,81.07
2019-01-25T10:05:23.330Z,63.40
2019-01-25T10:07:52.535Z,67.27
2019-01-25T10:10:21.417Z,57.97
2019-01-25T10:12:50.426Z,67.47
2019-01-25T10:15:21.610Z,67.40
2019-01-25T10:17:51.117Z,65.80
2019-01-25T10:20:20.617Z,66.17
2019-01-25T10:22:50.016Z,63.57
2019-01-25T10:25:19.115Z,56.47
2019-01-25T10:27:48.203Z,59.80
2019-01-25T10:30:20.229Z,51.90
2019-01-25T10:32:49.271Z,54.03
2019-01-25T10:35:18.462Z,55.60
2019-01-25T10:37:47.756Z,64.80
2019-01-25T10:40:17.935Z,68.77
2019-01-25T10:42:52.943Z,69.83
2019-01-25T10:45:26.150Z,58.73
2019-01-25T10:47:55.608Z,63.20
2019-01-25T10:50:24.480Z,57.33
2019-01-25T10:52:53.594Z,66.00
2019-01-25T10:55:22.796Z,62.47
2019-01-25T10:57:52.294Z,67.93
2019-01-25T11:00:21.601Z,55.57
2019-01-25T11:02:57.681Z,56.37
2019-01-25T11:05:23.060Z,60.63
2019-01-25T11:07:52.463Z,59.40
2019-01-25T11:10:21.539Z,54.87
2019-01-25T11:12:50.697Z,53.67
2019-01-25T11:15:21.099Z,51.50
2019-01-25T11:17:50.047Z,57.93
2019-01-25T11:20:20.281Z,48.37
2019-01-25T11:22:49.195Z,50.73
2019-01-25T11:25:38.753Z,48.53
2019-01-25T11:28:07.473Z,48.77
2019-01-25T11:30:36.321Z,51.93
2019-01-25T11:33:05.555Z,53.33
2019-01-25T11:35:34.726Z,51.77
2019-01-25T11:38:03.911Z,44.13
2019-01-25T11:40:35.777Z,40.87
2019-01-25T11:43:08.878Z,37.83
2019-01-25T11:45:35.939Z,34.73
2019-01-25T11:48:08.241Z,39.47
2019-01-25T11:50:37.197Z,39.33
2019-01-25T11:53:06.203Z,38.60
2019-01-25T11:55:34.972Z,41.00
2019-01-25T11:58:03.815Z,44.13
2019-01-25T12:00:34.160Z,39.90
2019-01-25T12:03:03.671Z,50.10
2019-01-25T12:05:32.767Z,41.80
2019-01-25T12:08:01.851Z,37.27
2019-01-25T12:10:31.187Z,42.27
2019-01-25T12:13:00.881Z,46.27
2019-01-25T12:15:29.793Z,37.70
2019-01-25T12:17:58.783Z,32.43
2019-01-25T12:20:29.685Z,40.20
2019-01-25T12:22:59.293Z,37.70
2019-01-25T12:25:28.609Z,40.40
2019-01-25T12:27:57.819Z,43.13
2019-01-25T12:30:29.190Z,33.83
2019-01-25T12:32:58.845Z,36.17
2019-01-25T12:35:29.269Z,32.37
2019-01-25T12:37:58.471Z,34.13
2019-01-25T12:40:28.009Z,34.20
2019-01-25T12:42:57.054Z,25.50
2019-01-25T12:45:27.186Z,33.67
2019-01-25T12:47:56.793Z,29.53
2019-01-25T12:50:52.791Z,33.93
2019-01-25T12:53:23.349Z,29.30
2019-01-25T12:55:52.621Z,29.00
2019-01-25T12:58:22.149Z,31.87
2019-01-25T13:00:52.243Z,25.57
2019-01-25T13:03:21.565Z,32.00
2019-01-25T13:05:51.185Z,35.30
2019-01-25T13:08:20.322Z,29.53
2019-01-25T13:10:49.664Z,32.47
2019-01-25T13:13:18.699Z,32.50
2019-01-25T13:15:47.868Z,38.57
2019-01-25T13:18:16.962Z,32.47
2019-01-25T13:20:46.048Z,35.73
2019-01-25T13:23:15.124Z,30.37
2019-01-25T13:25:47.218Z,33.53
2019-01-25T13:28:15.261Z,36.80
2019-01-25T13:30:44.064Z,36.93
2019-01-25T13:33:13.183Z,37.30
2019-01-25T13:35:42.443Z,36.90
2019-01-25T13:38:11.347Z,33.90
2019-01-25T13:40:40.605Z,36.50
2019-01-25T13:43:09.490Z,31.47
2019-01-25T13:45:38.776Z,38.30
2019-01-25T13:48:07.583Z,37.50
2019-01-25T13:50:36.487Z,39.37
2019-01-25T13:53:05.555Z,37.77
2019-01-25T13:55:35.005Z,38.43
2019-01-25T13:58:03.841Z,37.63
2019-01-25T14:00:34.142Z,38.57
2019-01-25T14:03:03.920Z,39.60
2019-01-25T14:05:33.303Z,39.17
2019-01-25T14:08:02.383Z,40.90
2019-01-25T14:10:33.191Z,41.47
2019-01-25T14:13:02.732Z,35.70
2019-01-25T14:15:32.271Z,43.30
2019-01-25T14:18:01.774Z,33.40
2019-01-25T14:20:31.850Z,32.13
2019-01-25T14:23:01.026Z,29.27
2019-01-25T14:25:30.809Z,30.57
2019-01-25T14:27:59.535Z,35.40
2019-01-25T14:30:36.128Z,33.27
2019-01-25T14:33:06.224Z,28.03
2019-01-25T14:35:35.473Z,30.00
2019-01-25T14:38:05.679Z,29.60
2019-01-25T14:40:34.499Z,31.93
2019-01-25T14:43:03.985Z,28.30
2019-01-25T14:45:33.589Z,30.60
2019-01-25T14:48:02.688Z,29.60
2019-01-25T14:50:32.216Z,31.27
2019-01-25T14:53:01.458Z,32.80
2019-01-25T14:55:30.582Z,29.43
2019-01-25T14:57:59.436Z,29.77
2019-01-25T15:00:30.514Z,31.70
2019-01-25T15:02:59.603Z,30.30
2019-01-25T15:05:28.697Z,29.27
2019-01-25T15:07:57.898Z,32.67
2019-01-25T15:10:27.620Z,31.87
2019-01-25T15:12:58.218Z,36.03
2019-01-25T15:15:27.735Z,30.80
2019-01-25T15:17:56.606Z,30.40
2019-01-25T15:20:27.940Z,32.93
2019-01-25T15:22:57.067Z,36.17
2019-01-25T15:25:26.571Z,39.33
2019-01-25T15:27:55.667Z,38.00
2019-01-25T15:30:29.953Z,33.83
2019-01-25T15:32:59.186Z,34.80
2019-01-25T15:35:28.480Z,39.80
2019-01-25T15:37:57.615Z,34.00
2019-01-25T15:40:26.877Z,39.43
2019-01-25T15:42:55.967Z,40.20
2019-01-25T15:45:25.379Z,33.40
2019-01-25T15:47:54.567Z,39.27
2019-01-25T15:50:25.864Z,41.07
2019-01-25T15:52:55.055Z,38.53
2019-01-25T15:55:24.715Z,45.20
2019-01-25T15:57:53.945Z,44.63
2019-01-25T16:00:24.443Z,39.60
2019-01-25T16:02:53.637Z,37.40
2019-01-25T16:05:24.600Z,48.47
2019-01-25T16:07:54.796Z,44.77
2019-01-25T16:10:24.419Z,45.60
2019-01-25T16:12:53.601Z,45.77
2019-01-25T16:15:28.204Z,49.53
2019-01-25T16:17:57.575Z,47.93
2019-01-25T16:20:26.480Z,43.70
2019-01-25T16:22:55.675Z,44.30
2019-01-25T16:25:30.294Z,45.73
2019-01-25T16:27:59.746Z,52.17
2019-01-25T16:30:30.707Z,51.63
2019-01-25T16:33:00.025Z,52.53
2019-01-25T16:35:29.603Z,45.53
2019-01-25T16:37:58.647Z,53.67
2019-01-25T16:40:28.291Z,53.67
2019-01-25T16:42:57.350Z,54.27
2019-01-25T16:45:29.018Z,46.30
2019-01-25T16:47:57.986Z,46.67
2019-01-25T16:50:27.175Z,50.67
2019-01-25T16:52:56.704Z,50.40
2019-01-25T16:55:25.600Z,51.77
2019-01-25T16:57:54.848Z,45.77
2019-01-25T17:00:41.559Z,51.83
2019-01-25T17:03:10.513Z,51.47
2019-01-25T17:05:40.030Z,52.30
2019-01-25T17:08:08.971Z,48.73
2019-01-25T17:10:38.258Z,47.40
2019-01-25T17:13:07.483Z,51.33
2019-01-25T17:15:36.627Z,53.70
2019-01-25T17:18:06.167Z,53.30
2019-01-25T17:20:35.126Z,53.70
2019-01-25T17:23:04.932Z,56.23
2019-01-25T17:25:34.127Z,56.87
2019-01-25T17:28:03.104Z,59.87
2019-01-25T17:30:34.206Z,51.63
2019-01-25T17:33:03.472Z,54.87
2019-01-25T17:35:32.687Z,54.60
2019-01-25T17:38:01.950Z,55.47
2019-01-25T17:40:33.554Z,51.33
2019-01-25T17:43:02.867Z,54.90
2019-01-25T17:45:31.950Z,48.13
2019-01-25T17:48:01.037Z,50.57
2019-01-25T17:50:30.380Z,49.80
2019-01-25T17:52:59.211Z,51.93
2019-01-25T17:55:28.219Z,49.30
2019-01-25T17:57:57.217Z,51.83
2019-01-25T18:00:34.899Z,56.60
2019-01-25T18:03:04.534Z,56.37
2019-01-25T18:05:34.786Z,53.60
2019-01-25T18:08:04.691Z,54.27
2019-01-25T18:10:33.569Z,58.83
2019-01-25T18:13:02.871Z,53.40
2019-01-25T18:15:31.946Z,51.93
2019-01-25T18:18:01.216Z,57.27
2019-01-25T18:20:30.164Z,57.97
2019-01-25T18:22:59.092Z,52.40
2019-01-25T18:25:38.770Z,59.23
2019-01-25T18:28:09.802Z,63.73
2019-01-25T18:30:45.958Z,63.20
2019-01-25T18:33:14.912Z,62.13
2019-01-25T18:35:44.050Z,56.63
2019-01-25T18:38:12.951Z,60.70
2019-01-25T18:40:41.982Z,57.40
2019-01-25T18:43:11.739Z,54.50
2019-01-25T18:45:41.094Z,60.60
2019-01-25T18:48:10.032Z,62.23
2019-01-25T18:50:38.937Z,65.97
2019-01-25T18:53:08.799Z,67.70
2019-01-25T18:55:37.714Z,63.10
2019-01-25T18:58:06.786Z,69.43
2019-01-25T19:00:36.019Z,57.93
2019-01-25T19:03:06.002Z,53.53
2019-01-25T19:05:35.490Z,56.97
2019-01-25T19:08:04.674Z,74.70
2019-01-25T19:10:33.919Z,101.23
2019-01-25T19:13:03.459Z,65.90
2019-01-25T19:15:32.897Z,64.87
2019-01-25T19:18:02.061Z,60.10
2019-01-25T19:20:30.938Z,51.23
2019-01-25T19:23:00.210Z,57.80
2019-01-25T19:25:29.104Z,57.27
2019-01-25T19:27:58.239Z,51.73
2019-01-25T19:30:32.346Z,53.57
2019-01-25T19:33:01.834Z,81.27
2019-01-25T19:35:31.131Z,58.17
2019-01-25T19:38:00.343Z,58.23
2019-01-25T19:40:30.903Z,53.53
2019-01-25T19:43:00.507Z,55.20
2019-01-25T19:45:31.588Z,51.83
2019-01-25T19:48:02.109Z,56.93
2019-01-25T19:50:31.699Z,58.07
2019-01-25T19:53:04.396Z,58.90
2019-01-25T19:55:34.267Z,53.97
2019-01-25T19:58:03.622Z,60.73
2019-01-25T20:00:36.632Z,54.93
2019-01-25T20:03:12.253Z,56.70
2019-01-25T20:05:43.875Z,53.13
2019-01-25T20:08:13.315Z,57.10
2019-01-25T20:10:42.765Z,52.30
2019-01-25T20:13:13.101Z,52.73
2019-01-25T20:15:42.360Z,57.77
2019-01-25T20:18:11.580Z,50.47
2019-01-25T20:20:41.558Z,52.27
2019-01-25T20:23:10.822Z,57.33
2019-01-25T20:25:40.323Z,58.83
2019-01-25T20:28:09.896Z,51.57
2019-01-25T20:30:39.390Z,49.67
2019-01-25T20:33:08.879Z,62.73
2019-01-25T20:35:39.914Z,58.97
2019-01-25T20:38:08.931Z,47.43
2019-01-25T20:40:37.938Z,47.77
2019-01-25T20:43:07.166Z,42.10
2019-01-25T20:45:37.731Z,45.83
2019-01-25T20:48:07.573Z,45.20
2019-01-25T20:50:36.952Z,46.17
2019-01-25T20:53:06.844Z,48.40
2019-01-25T20:55:35.805Z,47.67
2019-01-25T20:58:05.504Z,43.77
2019-01-25T21:00:36.707Z,42.67
2019-01-25T21:03:13.927Z,44.90
2019-01-25T21:05:43.470Z,44.13
2019-01-25T21:08:12.544Z,49.20
2019-01-25T21:10:41.831Z,42.83
2019-01-25T21:13:13.028Z,41.20
2019-01-25T21:15:42.836Z,43.40
2019-01-25T21:18:12.081Z,42.57
2019-01-25T21:20:47.186Z,35.37
2019-01-25T21:23:16.403Z,38.03
2019-01-25T21:25:46.322Z,39.60
2019-01-25T21:28:15.350Z,42.67
2019-01-25T21:30:44.532Z,37.10
2019-01-25T21:33:14.974Z,40.23
2019-01-25T21:35:44.808Z,39.30
2019-01-25T21:38:13.651Z,40.77
2019-01-25T21:40:43.674Z,40.03
2019-01-25T21:43:12.459Z,36.13
2019-01-25T21:45:43.201Z,39.30
2019-01-25T21:48:15.398Z,34.23
2019-01-25T21:50:45.710Z,40.00
2019-01-25T21:53:14.455Z,35.23
2019-01-25T21:55:44.753Z,33.20
2019-01-25T21:58:14.445Z,38.30
2019-01-25T22:00:44.130Z,43.30
2019-01-25T22:03:13.116Z,36.10
2019-01-25T22:05:42.684Z,37.50
2019-01-25T22:08:12.044Z,37.60
2019-01-25T22:10:44.353Z,41.37
2019-01-25T22:13:13.582Z,40.93
2019-01-25T22:15:42.673Z,42.87
2019-01-25T22:18:11.752Z,43.00
2019-01-25T22:20:40.795Z,39.30
2019-01-25T22:23:09.727Z,42.60
2019-01-25T22:25:38.899Z,39.90
2019-01-25T22:28:07.696Z,39.70
2019-01-25T22:30:36.967Z,43.00
2019-01-25T22:33:05.774Z,39.40
2019-01-25T22:35:35.355Z,40.67
2019-01-25T22:38:06.468Z,40.13
2019-01-25T22:40:35.868Z,43.53
2019-01-25T22:43:05.541Z,45.60
2019-01-25T22:45:34.808Z,42.37
2019-01-25T22:48:04.713Z,37.80
2019-01-25T22:50:35.952Z,41.23
2019-01-25T22:53:05.477Z,41.83
2019-01-25T22:55:34.864Z,36.27
2019-01-25T22:58:04.221Z,48.27
2019-01-25T23:00:54.821Z,49.57
2019-01-25T23:04:23.592Z,44.17
2019-01-25T23:12:10.482Z,34.33
2019-01-25T23:15:31.507Z,31.80
2019-01-25T23:22:45.863Z,35.23
2019-01-25T23:32:52.315Z,29.83
2019-01-25T23:36:52.135Z,30.83
2019-01-25T23:44:10.517Z,27.87
2019-01-25T23:47:49.231Z,31.37
2019-01-25T23:51:29.165Z,25.93
2019-01-25T23:57:48.644Z,26.03
